DRFK1: Arkansas Rvr at Deerfield

Data processed at Thu Jan 04 2018 23:47


All information presented herein is the property of the government of the United States of America and may be revised or deleted at any time without prior notice.
Dissemination of this information without the expressed written consent of the Public Affairs Office, Tulsa District U.S. Army Corps of Engineers is strictly prohibited.
These data are gathered electronically and, as presented, have not undergone any form of quality control. These data are not guaranteed to be valid or correct.
Go to home page.
Go to station list.

Downstream station:


Previous Day
Next Day
Current Day
    
SHEF ID:       DRFK1     ARKANSAS R AT DEERFIELD, KS
STATION TYPE:  

               PRECIP     STAGE  RIV-FLOW  BAT-LOAD
                   in        ft       cfs      volt
              Ccp-Rev   Ccp-Rev   Ccp-Rev   Ccp-Rev
(US/Central)
01/02 00:00      0.00      8.06       171     12.60
01/02 01:00      0.00      8.02       165     12.54
01/02 02:00      0.00      8.03       167     12.54
01/02 03:00      0.00      8.02       165     12.48
01/02 04:00      0.00      8.01       164     12.48
01/02 05:00      0.00      7.99       161     12.48
01/02 06:00      0.00      8.00       162     12.48
01/02 07:00      0.00      7.99       161     12.42
01/02 08:00      0.00      7.99       161      ----
01/02 09:00      0.00      7.99       161     12.54
01/02 10:00      0.00      7.99       161     13.59
01/02 11:00      0.00      8.00       162     13.59
01/02 12:00      0.00      8.00       162     13.65
01/02 13:00      0.00      8.00       162     13.59
01/02 14:00      0.00      8.01       164     13.65
01/02 15:00      0.00      8.01       164     13.59
01/02 16:00      0.00      8.00       162     13.65
01/02 17:00      0.00      8.00       162     13.94
01/02 18:00      0.00      8.00       162     13.07
01/02 19:00      0.00      8.00       162     12.89
01/02 20:00      0.00      8.00       162     12.77
01/02 21:00      0.00      7.99       161     12.77
01/02 22:00      0.00      7.98       160     12.71
01/02 23:00      0.00      7.95       155     12.71